Thief River Falls, MN (56701)

10:02 AM CDT on July 29, 2015 (GMT -0500)
Northern Thief River Falls | | Change Station
CLOSE
Current Station
Personal Weather Station
Location: Thief River Falls, MN
Elevation: 1135 ft
Nearby Weather Stations
Active Advisory: Wind Advisory Active Notice: Public Information Statement

Elev 1135 ft 48.12 °N, 96.18 °W | Updated 11 seconds ago

Overcast
Overcast
67.1 °F
Feels Like 67.1 °F
N
4.0
Wind Variable Wind from ENE
Gusts 4.9 mph

Today
High -- | Low -- °F
--% Chance of Precip.
Yesterday
High -- | Low -- °F
Precip. -- in
5:56 AM 9:05 PM
Waxing Gibbous, 95% visible
Pressure 29.69 in
Visibility 10.0 miles
Clouds Overcast 3800 ft
Dew Point 57 °F
Humidity 71%
Rainfall 0.00 in
Snow Depth Not available.
UV 2.0 out of 12
Pollen 8.20 out of 12
Air Quality Not available.
Flu Activity Not available.
METAR KTVF 291455Z AUTO 27019G30KT 10SM OVC038 18/13 A2969 RMK AO1 52024

More Conditions Fewer Conditions

Pressure 29.69 in
Visibility 10.0 miles
Clouds Overcast 3800 ft
Dew Point 57 °F
Humidity 71%
Rainfall 0.00 in
Snow Depth Not available.
UV 2.0 out of 12
Pollen 8.20 out of 12
Air Quality Not available.
Flu Activity Not available.
METAR KTVF 291455Z AUTO 27019G30KT 10SM OVC038 18/13 A2969 RMK AO1 52024

More Conditions Fewer Conditions

10-Day Weather Forecast

×

Almanac

Astronomy

Jul. 29, 2015 Rise Set
Actual Time
Civil Twilight
Nautical Twilight
Astronomical Twilight
Moon
Length of Visible Light
Length of Day
Tomorrow will be .
, % of the Moon is Illuminated

Today's Extremes

State Highs State Lows

Community

WunderPhotos

Upload Photos

1,842,117 photos uploaded!

WunderBlogs® & News

Nearby

Air Quality

  Air Quality AQ Index Pollutant
Not available.

Snow Depth

Station Depth Elevation

Earthquake Activity

City Distance Mag. Time & Date
Minimum magnitude displayed is 2.5.

Coastal Water Temperatures

Place Temperature

Stations

Nearby Weather Stations

Station Location Temp. Windchill Dew Point Humidity Wind Precip. Elev Updated Type
                   
Wind Advisory
Statement as of 4:00 AM CDT on July 29, 2015

... Wind Advisory in effect until 7 PM CDT this evening...

The National Weather Service in Grand Forks has issued a Wind
Advisory... which is in effect until 7 PM CDT this evening.

* Winds... west around 30 mph with gusts up to 50 mph.

* Timing... strong westerly winds will continue today.

Precautionary/preparedness actions...

A Wind Advisory means that winds of 35 mph are expected. Winds
this strong can make driving difficult... especially for high
profile vehicles. Use extra caution.